Hartland Township, Michigan
Current Conditions -  °F | °C
As of 10:54 PM on Saturday 24 Jan 2015 (Local Time) from KOZW Reporting Station
Haze Haze  
Wind Chill: 26°   Ceiling: 3800
Heat Index: 33°   Visibility: 5mi
Dew Point: 32°   Wind: 8mph
Humidity: 96%   Direction: 250°WSW
Pressure: 29.65"   Gusts: NA
Location:  42.5294°N, 83.7802°W
Report Text: KOZW 250354Z AUTO 25007KT 5SM BR BKN038 BKN090 01/00 A2965 RMK AO2 T00070001
Loading
Personal Weather Stations






























Interactive Weather Map New forecast layout! Learn more

10-Day Weather Forecast

Advertisements
Track Severe Weather on mobile